createdAt,value
2023-03-26T00:02:30.990Z,8.06
2023-03-26T00:05:34.234Z,8.05
2023-03-26T00:08:38.370Z,8.04
2023-03-26T00:11:42.497Z,7.96
2023-03-26T00:14:45.147Z,7.97
2023-03-26T00:17:48.101Z,7.93
2023-03-26T00:20:52.733Z,7.94
2023-03-26T00:24:04.857Z,7.89
2023-03-26T00:27:08.847Z,7.84
2023-03-26T00:30:12.525Z,7.85
2023-03-26T00:33:17.499Z,7.81
2023-03-26T00:36:20.675Z,7.79
2023-03-26T00:39:24.133Z,7.72
2023-03-26T00:42:27.601Z,7.74
2023-03-26T00:45:30.450Z,7.67
2023-03-26T00:48:44.672Z,7.62
2023-03-26T00:51:48.240Z,7.68
2023-03-26T00:54:52.330Z,7.76
2023-03-26T00:57:55.503Z,7.78
2023-03-26T01:01:01.016Z,7.84
2023-03-26T01:04:27.509Z,7.76
2023-03-26T01:07:31.579Z,7.80
2023-03-26T01:10:38.723Z,7.80
2023-03-26T01:13:51.290Z,7.79
2023-03-26T01:16:56.037Z,7.69
2023-03-26T01:20:13.215Z,7.74
2023-03-26T01:23:22.744Z,7.67
2023-03-26T01:26:43.095Z,7.67
2023-03-26T01:29:54.273Z,7.68
2023-03-26T01:33:21.558Z,7.66
2023-03-26T01:36:34.992Z,7.67
2023-03-26T01:39:53.925Z,7.62
2023-03-26T01:43:24.699Z,7.61
2023-03-26T01:46:27.874Z,7.53
2023-03-26T01:49:31.718Z,7.50
2023-03-26T01:52:35.054Z,7.49
2023-03-26T01:55:49.679Z,7.49
2023-03-26T01:58:59.801Z,7.49
2023-03-26T02:02:26.202Z,7.45
2023-03-26T02:05:34.234Z,7.45
2023-03-26T02:08:42.860Z,7.45
2023-03-26T02:11:46.852Z,7.50
2023-03-26T02:14:49.961Z,7.43
2023-03-26T02:17:54.155Z,7.49
2023-03-26T02:20:57.237Z,7.43
2023-03-26T02:24:03.350Z,7.42
2023-03-26T02:27:07.947Z,7.35
2023-03-26T02:30:14.993Z,7.33
2023-03-26T02:33:18.193Z,7.32
2023-03-26T02:36:25.120Z,7.32
2023-03-26T02:39:30.188Z,7.33
2023-03-26T02:42:33.333Z,7.37
2023-03-26T02:45:36.409Z,7.38
2023-03-26T02:48:41.574Z,7.40
2023-03-26T02:51:44.995Z,7.36
2023-03-26T02:54:48.195Z,7.40
2023-03-26T02:57:51.624Z,7.38
2023-03-26T03:00:57.717Z,7.35
2023-03-26T03:04:04.280Z,7.34
2023-03-26T03:07:07.785Z,7.28
2023-03-26T03:10:22.081Z,7.26
2023-03-26T03:13:27.690Z,7.20
2023-03-26T03:16:30.750Z,7.17
2023-03-26T03:19:33.689Z,7.16
2023-03-26T03:22:37.475Z,7.11
2023-03-26T03:25:41.203Z,7.08
2023-03-26T03:28:45.305Z,7.05
2023-03-26T03:31:49.353Z,6.97
2023-03-26T03:34:53.290Z,6.95
2023-03-26T03:37:57.610Z,6.92
2023-03-26T03:41:01.861Z,6.90
2023-03-26T03:44:04.914Z,6.93
2023-03-26T03:47:10.468Z,6.95
2023-03-26T03:50:13.316Z,6.91
2023-03-26T03:53:18.527Z,6.89
2023-03-26T03:56:24.231Z,6.87
2023-03-26T03:59:29.354Z,6.84
2023-03-26T04:02:35.063Z,6.82
2023-03-26T04:05:38.721Z,6.77
2023-03-26T04:08:41.520Z,6.70
2023-03-26T04:11:45.245Z,6.65
2023-03-26T04:14:48.848Z,6.60
2023-03-26T04:17:52.181Z,6.53
2023-03-26T04:20:55.873Z,6.56
2023-03-26T04:24:02.232Z,6.57
2023-03-26T04:27:12.701Z,6.55
2023-03-26T04:30:20.624Z,6.53
2023-03-26T04:33:25.004Z,6.51
2023-03-26T04:36:32.219Z,6.52
2023-03-26T04:39:36.287Z,6.43
2023-03-26T04:42:46.989Z,6.43
2023-03-26T04:45:50.329Z,6.38
2023-03-26T04:48:55.089Z,6.31
2023-03-26T04:51:57.916Z,6.15
2023-03-26T04:55:18.617Z,6.33
2023-03-26T04:58:32.823Z,6.39
2023-03-26T05:01:37.945Z,6.47
2023-03-26T05:04:43.810Z,6.61
2023-03-26T05:07:46.949Z,6.67
2023-03-26T05:10:50.321Z,6.76
2023-03-26T05:13:54.216Z,6.80
2023-03-26T05:16:57.069Z,6.82
2023-03-26T05:20:01.203Z,6.83
2023-03-26T05:23:04.483Z,6.89
2023-03-26T05:26:09.598Z,6.90
2023-03-26T05:29:17.784Z,7.02
2023-03-26T05:32:20.961Z,6.79
2023-03-26T05:35:25.750Z,7.12
2023-03-26T05:38:30.045Z,7.15
2023-03-26T05:41:32.754Z,7.22
2023-03-26T05:44:35.744Z,7.27
2023-03-26T05:47:39.221Z,7.33
2023-03-26T05:50:42.272Z,7.43
2023-03-26T05:53:45.342Z,7.49
2023-03-26T05:56:50.561Z,7.58
2023-03-26T06:00:05.970Z,7.63
2023-03-26T06:03:19.195Z,7.65
2023-03-26T06:06:23.925Z,7.76
2023-03-26T06:09:29.569Z,7.86
2023-03-26T06:12:32.749Z,7.94
2023-03-26T06:15:35.286Z,8.02
2023-03-26T06:18:39.324Z,8.13
2023-03-26T06:21:43.526Z,8.20
2023-03-26T06:24:46.446Z,8.27
2023-03-26T06:27:50.884Z,8.39
2023-03-26T06:30:54.991Z,8.52
2023-03-26T06:33:57.984Z,8.58
2023-03-26T06:37:00.973Z,8.83
2023-03-26T06:40:04.792Z,9.00
2023-03-26T06:43:10.821Z,9.17
2023-03-26T06:46:14.659Z,9.30
2023-03-26T06:49:18.825Z,9.43
2023-03-26T06:52:22.630Z,9.64
2023-03-26T06:55:25.969Z,9.83
2023-03-26T06:58:29.839Z,10.05
2023-03-26T07:01:40.900Z,10.23
2023-03-26T07:04:58.731Z,10.40
2023-03-26T07:08:16.093Z,10.54
2023-03-26T07:11:25.462Z,10.78
2023-03-26T07:14:30.589Z,10.92
2023-03-26T07:17:33.451Z,10.77
2023-03-26T07:20:36.646Z,10.73
2023-03-26T07:23:39.804Z,10.99
2023-03-26T07:27:07.748Z,11.29
2023-03-26T07:30:14.962Z,11.52
2023-03-26T07:33:43.208Z,11.69
2023-03-26T07:36:51.952Z,11.98
2023-03-26T07:40:03.576Z,12.28
2023-03-26T07:43:41.882Z,12.29
2023-03-26T07:46:47.840Z,12.49
2023-03-26T07:49:51.792Z,12.63
2023-03-26T07:52:55.675Z,12.91
2023-03-26T07:56:08.110Z,13.03
2023-03-26T07:59:43.931Z,13.50
2023-03-26T08:02:49.505Z,13.70
2023-03-26T08:06:07.031Z,13.68
2023-03-26T08:09:25.418Z,13.24
2023-03-26T08:12:38.908Z,12.85
2023-03-26T08:16:05.598Z,12.57
2023-03-26T08:19:49.268Z,12.44
2023-03-26T08:23:02.195Z,12.40
2023-03-26T08:26:19.798Z,12.27
2023-03-26T08:29:45.328Z,12.28
2023-03-26T08:32:59.803Z,12.12
2023-03-26T08:36:02.672Z,12.01
2023-03-26T08:39:05.973Z,12.14
2023-03-26T08:42:46.148Z,12.06
2023-03-26T08:46:10.414Z,12.11
2023-03-26T08:49:31.886Z,12.11
2023-03-26T08:53:03.292Z,12.11
2023-03-26T08:56:16.522Z,12.26
2023-03-26T08:59:53.534Z,12.22
2023-03-26T09:03:00.503Z,12.30
2023-03-26T09:06:09.468Z,12.31
2023-03-26T09:09:33.586Z,12.26
2023-03-26T09:12:59.326Z,12.20
2023-03-26T09:16:43.245Z,12.16
2023-03-26T09:19:59.225Z,12.18
2023-03-26T09:23:26.378Z,12.27
2023-03-26T09:26:38.304Z,12.67
2023-03-26T09:30:24.181Z,13.05
2023-03-26T09:33:59.430Z,13.49
2023-03-26T09:37:17.534Z,14.51
2023-03-26T09:40:23.057Z,14.62
2023-03-26T09:43:44.487Z,15.18
2023-03-26T09:47:19.794Z,15.15
2023-03-26T09:51:05.972Z,14.88
2023-03-26T09:54:21.107Z,14.44
2023-03-26T09:57:29.868Z,14.31
2023-03-26T10:00:48.611Z,14.02
2023-03-26T10:04:26.896Z,14.48
2023-03-26T10:07:47.953Z,14.53
2023-03-26T10:10:58.438Z,14.60
2023-03-26T10:14:16.212Z,15.09
2023-03-26T10:18:00.973Z,16.06
2023-03-26T10:21:38.013Z,16.79
2023-03-26T10:24:59.070Z,16.94
2023-03-26T10:28:13.757Z,17.37
2023-03-26T10:31:19.363Z,18.17
2023-03-26T10:34:54.715Z,18.56
2023-03-26T10:38:23.313Z,18.62
2023-03-26T10:41:38.098Z,19.35
2023-03-26T10:45:18.206Z,19.78
2023-03-26T10:48:43.135Z,20.02
2023-03-26T10:51:50.438Z,19.49
2023-03-26T10:54:59.836Z,19.55
2023-03-26T10:58:25.679Z,19.46
2023-03-26T11:01:50.036Z,19.62
2023-03-26T11:05:13.824Z,19.77
2023-03-26T11:08:31.647Z,18.29
2023-03-26T11:11:45.299Z,18.71
2023-03-26T11:15:03.760Z,19.11
2023-03-26T11:18:46.009Z,20.03
2023-03-26T11:21:51.446Z,19.83
2023-03-26T11:24:56.482Z,20.02
2023-03-26T11:28:06.261Z,20.83
2023-03-26T11:31:32.288Z,20.59
2023-03-26T11:34:58.417Z,21.38
2023-03-26T11:38:07.546Z,20.75
2023-03-26T11:41:22.538Z,21.32
2023-03-26T11:44:29.863Z,21.19
2023-03-26T11:47:42.688Z,21.81
2023-03-26T11:50:52.799Z,21.95
2023-03-26T11:53:57.893Z,21.23
2023-03-26T11:57:06.968Z,20.18
2023-03-26T12:00:18.231Z,19.40
2023-03-26T12:03:21.609Z,19.01
2023-03-26T12:06:30.085Z,20.39
2023-03-26T12:09:33.013Z,20.39
2023-03-26T12:12:41.709Z,21.08
2023-03-26T12:15:44.634Z,21.91
2023-03-26T12:19:08.240Z,21.80
2023-03-26T12:22:32.930Z,20.38
2023-03-26T12:25:39.193Z,19.42
2023-03-26T12:28:47.744Z,19.22
2023-03-26T12:32:04.784Z,19.06
2023-03-26T12:35:18.732Z,19.27
2023-03-26T12:38:35.442Z,19.61
2023-03-26T12:43:40.480Z,19.85
2023-03-26T12:45:04.083Z,19.15
2023-03-26T12:48:07.480Z,18.63
2023-03-26T12:51:38.935Z,18.04
2023-03-26T12:55:00.225Z,18.72
2023-03-26T12:58:41.151Z,18.44
2023-03-26T13:01:59.655Z,18.33
2023-03-26T13:05:40.457Z,19.22
2023-03-26T13:08:49.378Z,20.01
2023-03-26T13:12:43.033Z,18.61
2023-03-26T13:15:52.557Z,18.35
2023-03-26T13:19:05.086Z,18.74
2023-03-26T13:22:12.411Z,18.96
2023-03-26T13:25:35.324Z,19.68
2023-03-26T13:28:53.674Z,19.72
2023-03-26T13:32:11.925Z,20.41
2023-03-26T13:35:39.972Z,19.90
2023-03-26T13:39:03.544Z,20.17
2023-03-26T13:42:26.675Z,20.33
2023-03-26T13:45:38.138Z,20.38
2023-03-26T13:49:01.837Z,20.38
2023-03-26T13:52:19.240Z,20.18
2023-03-26T13:55:28.276Z,19.57
2023-03-26T13:58:50.778Z,19.12
2023-03-26T14:01:58.223Z,18.90
2023-03-26T14:05:10.167Z,18.40
2023-03-26T14:08:20.841Z,17.95
2023-03-26T14:11:43.381Z,18.00
2023-03-26T14:14:52.379Z,18.12
2023-03-26T14:18:10.776Z,18.21
2023-03-26T14:21:49.356Z,18.28
2023-03-26T14:25:27.683Z,18.41
2023-03-26T14:28:54.877Z,18.20
2023-03-26T14:32:04.255Z,18.47
2023-03-26T14:35:14.447Z,18.34
2023-03-26T14:38:49.357Z,18.53
2023-03-26T14:41:54.121Z,18.67
2023-03-26T14:45:09.722Z,18.36
2023-03-26T14:48:32.060Z,18.01
2023-03-26T14:51:56.737Z,17.85
2023-03-26T14:55:01.800Z,17.74
2023-03-26T14:58:23.244Z,17.48
2023-03-26T15:01:27.631Z,17.32
2023-03-26T15:04:53.935Z,16.98
2023-03-26T15:08:04.982Z,16.75
2023-03-26T15:11:45.592Z,16.75
2023-03-26T15:14:54.089Z,16.59
2023-03-26T15:18:35.100Z,16.78
2023-03-26T15:21:51.172Z,16.72
2023-03-26T15:25:16.115Z,16.59
2023-03-26T15:28:59.906Z,16.62
2023-03-26T15:32:33.618Z,16.43
2023-03-26T15:35:42.141Z,16.28
2023-03-26T15:39:18.427Z,16.25
2023-03-26T15:42:49.481Z,16.29
2023-03-26T15:46:22.372Z,16.27
2023-03-26T15:49:40.170Z,16.12
2023-03-26T15:52:49.051Z,15.94
2023-03-26T15:56:16.213Z,15.90
2023-03-26T15:59:29.494Z,15.82
2023-03-26T16:02:36.411Z,15.58
2023-03-26T16:06:14.151Z,15.46
2023-03-26T16:09:27.384Z,15.35
2023-03-26T16:12:37.436Z,15.27
2023-03-26T16:15:42.803Z,15.17
2023-03-26T16:18:51.035Z,15.09
2023-03-26T16:22:04.381Z,14.99
2023-03-26T16:25:27.269Z,14.88
2023-03-26T16:28:33.601Z,14.76
2023-03-26T16:31:39.472Z,14.66
2023-03-26T16:34:52.986Z,14.44
2023-03-26T16:38:18.502Z,14.32
2023-03-26T16:41:26.763Z,14.22
2023-03-26T16:44:44.130Z,14.15
2023-03-26T16:47:54.276Z,14.05
2023-03-26T16:51:06.282Z,13.92
2023-03-26T16:54:33.448Z,13.89
2023-03-26T16:57:42.344Z,13.85
2023-03-26T17:01:07.634Z,13.78
2023-03-26T17:04:23.577Z,13.68
2023-03-26T17:07:39.444Z,13.62
2023-03-26T17:11:36.231Z,13.60
2023-03-26T17:15:18.618Z,13.49
2023-03-26T17:18:47.040Z,13.34
2023-03-26T17:22:19.114Z,13.26
2023-03-26T17:25:35.727Z,13.22
2023-03-26T17:29:06.863Z,13.16
2023-03-26T17:32:12.840Z,12.99
2023-03-26T17:35:16.183Z,13.03
2023-03-26T17:38:25.473Z,12.95
2023-03-26T17:41:55.471Z,12.84
2023-03-26T17:45:01.386Z,12.78
2023-03-26T17:48:10.795Z,12.75
2023-03-26T17:51:22.222Z,12.68
2023-03-26T17:54:44.433Z,12.63
2023-03-26T17:57:51.993Z,12.60
2023-03-26T18:01:08.257Z,12.56
2023-03-26T18:04:15.789Z,12.50
2023-03-26T18:07:52.299Z,12.43
2023-03-26T18:11:17.079Z,12.47
2023-03-26T18:14:32.006Z,12.43
2023-03-26T18:17:46.307Z,12.37
2023-03-26T18:20:51.025Z,12.33
2023-03-26T18:23:53.985Z,12.35
2023-03-26T18:27:06.381Z,12.34
2023-03-26T18:30:22.928Z,12.35
2023-03-26T18:33:26.042Z,12.32
2023-03-26T18:36:31.022Z,12.30
2023-03-26T18:39:33.501Z,12.32
2023-03-26T18:42:37.433Z,12.32
2023-03-26T18:45:41.405Z,12.34
2023-03-26T18:48:46.336Z,12.29
2023-03-26T18:51:57.489Z,12.33
2023-03-26T18:55:02.164Z,12.28
2023-03-26T18:58:22.225Z,12.30
2023-03-26T19:01:30.697Z,11.87
2023-03-26T19:04:34.985Z,12.30
2023-03-26T19:07:39.199Z,12.32
2023-03-26T19:10:42.833Z,12.29
2023-03-26T19:13:51.142Z,12.25
2023-03-26T19:16:59.343Z,12.12
2023-03-26T19:20:04.294Z,12.14
2023-03-26T19:23:09.142Z,12.13
2023-03-26T19:26:12.560Z,12.11
2023-03-26T19:29:19.726Z,12.02
2023-03-26T19:32:32.484Z,12.03
2023-03-26T19:35:39.636Z,12.00
2023-03-26T19:38:52.056Z,11.93
2023-03-26T19:41:54.906Z,11.92
2023-03-26T19:45:05.701Z,11.95
2023-03-26T19:48:15.533Z,11.93
2023-03-26T19:51:30.892Z,11.93
2023-03-26T19:55:00.132Z,11.99
2023-03-26T19:58:04.331Z,12.02
2023-03-26T20:01:28.665Z,11.97
2023-03-26T20:04:32.988Z,11.97
2023-03-26T20:07:39.397Z,11.94
2023-03-26T20:10:43.250Z,11.89
2023-03-26T20:13:46.458Z,11.97
2023-03-26T20:16:49.784Z,11.92
2023-03-26T20:19:54.306Z,11.96
2023-03-26T20:22:57.634Z,11.92
2023-03-26T20:26:01.271Z,11.86
2023-03-26T20:29:04.838Z,11.81
2023-03-26T20:32:23.671Z,11.83
2023-03-26T20:35:35.774Z,11.81
2023-03-26T20:38:43.395Z,11.80
2023-03-26T20:41:48.729Z,11.69
2023-03-26T20:44:51.370Z,11.69
2023-03-26T20:47:54.716Z,11.68
2023-03-26T20:50:57.417Z,11.58
2023-03-26T20:54:00.691Z,11.60
2023-03-26T20:57:03.440Z,11.61
2023-03-26T21:00:22.418Z,11.53
2023-03-26T21:03:25.376Z,11.52
2023-03-26T21:06:28.234Z,11.51
2023-03-26T21:09:35.326Z,11.46
2023-03-26T21:12:47.871Z,11.43
2023-03-26T21:15:50.811Z,11.37
2023-03-26T21:18:54.305Z,11.34
2023-03-26T21:22:15.620Z,11.34
2023-03-26T21:25:24.339Z,11.32
2023-03-26T21:28:42.221Z,11.28
2023-03-26T21:31:46.675Z,11.27
2023-03-26T21:34:58.491Z,11.30
2023-03-26T21:38:04.748Z,11.25
2023-03-26T21:41:07.738Z,11.22
2023-03-26T21:44:10.917Z,11.23
2023-03-26T21:47:14.114Z,11.24
2023-03-26T21:50:21.716Z,11.21
2023-03-26T21:53:24.542Z,11.24
2023-03-26T21:56:34.764Z,11.19
2023-03-26T22:00:18.194Z,11.21
2023-03-26T22:03:21.210Z,11.28
2023-03-26T22:06:32.382Z,11.25
2023-03-26T22:09:36.448Z,11.25
2023-03-26T22:12:39.616Z,11.24
2023-03-26T22:15:43.362Z,11.22
2023-03-26T22:18:45.955Z,11.11
2023-03-26T22:21:50.978Z,10.98
2023-03-26T22:24:53.732Z,10.95
2023-03-26T22:27:57.569Z,10.83
2023-03-26T22:31:07.205Z,10.74
2023-03-26T22:34:10.162Z,10.80
2023-03-26T22:37:13.551Z,10.85
2023-03-26T22:40:17.970Z,10.82
2023-03-26T22:43:20.553Z,10.76
2023-03-26T22:46:24.219Z,10.69
2023-03-26T22:49:27.457Z,10.66
2023-03-26T22:52:30.751Z,10.61
2023-03-26T22:55:33.581Z,10.53
2023-03-26T22:58:38.004Z,10.39
2023-03-26T23:01:40.835Z,10.31
2023-03-26T23:04:44.322Z,10.20
2023-03-26T23:07:47.354Z,10.00
2023-03-26T23:10:52.140Z,9.88
2023-03-26T23:13:54.701Z,9.78
2023-03-26T23:16:57.600Z,9.74
2023-03-26T23:20:00.710Z,9.74
2023-03-26T23:23:03.706Z,9.68
2023-03-26T23:26:06.973Z,9.64
2023-03-26T23:29:10.048Z,9.61
2023-03-26T23:32:23.368Z,9.55
2023-03-26T23:35:27.704Z,9.48
2023-03-26T23:38:43.083Z,9.49
2023-03-26T23:41:46.588Z,9.37
2023-03-26T23:44:49.387Z,9.32
2023-03-26T23:47:52.441Z,9.35
2023-03-26T23:51:03.481Z,9.17
2023-03-26T23:54:08.704Z,9.09
2023-03-26T23:57:11.485Z,8.98
